CheckWX is a tool to help pilots better visualize weather data.  It is not intended as a substitute for an official pre-flight weather briefing.

20:11:06 UTC

KTPF METAR
Peter O Knight Airport
Tampa, Florida, USA
Current

16 mins ago

KTPF 231955Z AUTO 00000KT 10SM CLR 30/11 A3007 RMK AO2
Observed
Apr-23 @ 19:55 UTC
Visibility
10 SM
Flight Rules
VFR
Cloud Levels
  • Clear skies
Temperature
30°C / 86°F
Dewpoint
11°C / 52°F
Humidity
31%
Altimeter
30.07" Hg
Pressure
1018.32 hPa
Previous

36 mins ago

KTPF 231935Z AUTO 09006KT 10SM CLR 30/11 A3008 RMK AO2
Observed
Apr-23 @ 19:35 UTC
Wind
  • 090° at 6 KTS
Visibility
10 SM
Flight Rules
VFR
Cloud Levels
  • Clear skies
Temperature
30°C / 86°F
Dewpoint
11°C / 52°F
Humidity
31%
Altimeter
30.08" Hg
Pressure
1018.62 hPa
Previous

56 mins ago

KTPF 231915Z AUTO 03004KT 10SM CLR 29/11 A3008 RMK AO2
Observed
Apr-23 @ 19:15 UTC
Wind
  • 030° at 4 KTS
Visibility
10 SM
Flight Rules
VFR
Cloud Levels
  • Clear skies
Temperature
29°C / 84°F
Dewpoint
11°C / 52°F
Humidity
33%
Altimeter
30.08" Hg
Pressure
1018.62 hPa